sensor_id;sensor_type;location;lat;lon;timestamp;temperature;humidity
14142;DHT22;7151;52.246;4.820;2023-06-10T00:01:46;27.90;46.20
14142;DHT22;7151;52.246;4.820;2023-06-10T00:04:16;27.80;46.10
14142;DHT22;7151;52.246;4.820;2023-06-10T00:06:45;27.80;46.10
14142;DHT22;7151;52.246;4.820;2023-06-10T00:09:13;27.70;46.10
14142;DHT22;7151;52.246;4.820;2023-06-10T00:11:40;27.70;46.20
14142;DHT22;7151;52.246;4.820;2023-06-10T00:14:06;27.70;46.10
14142;DHT22;7151;52.246;4.820;2023-06-10T00:16:32;27.60;46.10
14142;DHT22;7151;52.246;4.820;2023-06-10T00:18:59;27.60;46.20
14142;DHT22;7151;52.246;4.820;2023-06-10T00:21:30;27.60;46.10
14142;DHT22;7151;52.246;4.820;2023-06-10T00:24:03;27.50;46.10
14142;DHT22;7151;52.246;4.820;2023-06-10T00:26:29;27.60;46.10
14142;DHT22;7151;52.246;4.820;2023-06-10T00:28:55;27.50;46.00
14142;DHT22;7151;52.246;4.820;2023-06-10T00:31:20;27.50;46.00
14142;DHT22;7151;52.246;4.820;2023-06-10T00:33:46;27.50;46.00
14142;DHT22;7151;52.246;4.820;2023-06-10T00:36:11;27.40;46.00
14142;DHT22;7151;52.246;4.820;2023-06-10T00:38:37;27.40;46.00
14142;DHT22;7151;52.246;4.820;2023-06-10T00:41:02;27.40;46.00
14142;DHT22;7151;52.246;4.820;2023-06-10T00:43:28;27.30;45.90
14142;DHT22;7151;52.246;4.820;2023-06-10T00:45:54;27.30;45.90
14142;DHT22;7151;52.246;4.820;2023-06-10T00:48:20;27.30;46.00
14142;DHT22;7151;52.246;4.820;2023-06-10T00:50:46;27.20;46.00
14142;DHT22;7151;52.246;4.820;2023-06-10T00:53:12;27.20;46.00
14142;DHT22;7151;52.246;4.820;2023-06-10T00:55:38;27.20;46.00
14142;DHT22;7151;52.246;4.820;2023-06-10T00:58:05;27.20;46.10
14142;DHT22;7151;52.246;4.820;2023-06-10T01:00:31;27.10;46.60
14142;DHT22;7151;52.246;4.820;2023-06-10T01:02:56;27.10;46.10
14142;DHT22;7151;52.246;4.820;2023-06-10T01:05:23;27.00;46.10
14142;DHT22;7151;52.246;4.820;2023-06-10T01:07:50;27.00;46.10
14142;DHT22;7151;52.246;4.820;2023-06-10T01:10:39;27.00;46.10
14142;DHT22;7151;52.246;4.820;2023-06-10T01:13:08;26.90;46.10
14142;DHT22;7151;52.246;4.820;2023-06-10T01:15:37;26.90;46.10
14142;DHT22;7151;52.246;4.820;2023-06-10T01:18:05;26.90;46.10
14142;DHT22;7151;52.246;4.820;2023-06-10T01:20:34;26.90;46.10
14142;DHT22;7151;52.246;4.820;2023-06-10T01:23:02;26.80;46.10
14142;DHT22;7151;52.246;4.820;2023-06-10T01:25:31;26.80;46.20
14142;DHT22;7151;52.246;4.820;2023-06-10T01:30:59;26.70;46.10
14142;DHT22;7151;52.246;4.820;2023-06-10T01:33:31;26.70;46.20
14142;DHT22;7151;52.246;4.820;2023-06-10T01:35:59;26.70;46.20
14142;DHT22;7151;52.246;4.820;2023-06-10T01:38:32;26.60;46.10
14142;DHT22;7151;52.246;4.820;2023-06-10T01:40:58;26.60;46.20
14142;DHT22;7151;52.246;4.820;2023-06-10T01:43:25;26.60;46.20
14142;DHT22;7151;52.246;4.820;2023-06-10T01:45:51;26.50;46.20
14142;DHT22;7151;52.246;4.820;2023-06-10T01:48:16;26.50;46.30
14142;DHT22;7151;52.246;4.820;2023-06-10T01:50:42;26.50;46.20
14142;DHT22;7151;52.246;4.820;2023-06-10T01:53:09;26.40;46.20
14142;DHT22;7151;52.246;4.820;2023-06-10T01:55:34;26.40;46.30
14142;DHT22;7151;52.246;4.820;2023-06-10T01:58:00;26.40;46.30
14142;DHT22;7151;52.246;4.820;2023-06-10T02:00:25;26.30;46.30
14142;DHT22;7151;52.246;4.820;2023-06-10T02:02:51;26.30;46.30
14142;DHT22;7151;52.246;4.820;2023-06-10T02:05:17;26.30;46.40
14142;DHT22;7151;52.246;4.820;2023-06-10T02:07:42;26.30;46.50
14142;DHT22;7151;52.246;4.820;2023-06-10T02:10:08;26.20;46.40
14142;DHT22;7151;52.246;4.820;2023-06-10T02:12:34;26.20;46.50
14142;DHT22;7151;52.246;4.820;2023-06-10T02:14:59;26.20;46.50
14142;DHT22;7151;52.246;4.820;2023-06-10T02:17:25;26.20;46.60
14142;DHT22;7151;52.246;4.820;2023-06-10T02:19:51;26.10;46.60
14142;DHT22;7151;52.246;4.820;2023-06-10T02:22:21;26.10;46.70
14142;DHT22;7151;52.246;4.820;2023-06-10T02:24:47;26.00;46.70
14142;DHT22;7151;52.246;4.820;2023-06-10T02:27:14;26.00;46.70
14142;DHT22;7151;52.246;4.820;2023-06-10T02:29:39;26.00;46.80
14142;DHT22;7151;52.246;4.820;2023-06-10T02:32:07;26.00;46.90
14142;DHT22;7151;52.246;4.820;2023-06-10T02:34:32;26.00;46.90
14142;DHT22;7151;52.246;4.820;2023-06-10T02:36:59;26.00;47.00
14142;DHT22;7151;52.246;4.820;2023-06-10T02:39:24;25.90;47.00
14142;DHT22;7151;52.246;4.820;2023-06-10T02:41:50;25.90;47.10
14142;DHT22;7151;52.246;4.820;2023-06-10T02:44:17;25.90;47.20
14142;DHT22;7151;52.246;4.820;2023-06-10T02:46:43;25.90;47.20
14142;DHT22;7151;52.246;4.820;2023-06-10T02:49:08;25.80;47.30
14142;DHT22;7151;52.246;4.820;2023-06-10T02:51:34;25.80;47.30
14142;DHT22;7151;52.246;4.820;2023-06-10T02:53:59;25.80;47.40
14142;DHT22;7151;52.246;4.820;2023-06-10T02:56:25;25.80;47.50
14142;DHT22;7151;52.246;4.820;2023-06-10T02:58:51;25.70;47.50
14142;DHT22;7151;52.246;4.820;2023-06-10T03:01:17;25.70;47.60
14142;DHT22;7151;52.246;4.820;2023-06-10T03:03:44;25.70;47.60
14142;DHT22;7151;52.246;4.820;2023-06-10T03:06:12;25.60;47.70
14142;DHT22;7151;52.246;4.820;2023-06-10T03:08:38;25.60;47.80
14142;DHT22;7151;52.246;4.820;2023-06-10T03:11:04;25.60;47.80
14142;DHT22;7151;52.246;4.820;2023-06-10T03:13:29;25.60;47.90
14142;DHT22;7151;52.246;4.820;2023-06-10T03:15:55;25.60;48.00
14142;DHT22;7151;52.246;4.820;2023-06-10T03:18:21;25.50;48.00
14142;DHT22;7151;52.246;4.820;2023-06-10T03:20:48;25.50;48.10
14142;DHT22;7151;52.246;4.820;2023-06-10T03:23:14;25.50;48.20
14142;DHT22;7151;52.246;4.820;2023-06-10T03:25:41;25.50;48.30
14142;DHT22;7151;52.246;4.820;2023-06-10T03:28:06;25.50;48.30
14142;DHT22;7151;52.246;4.820;2023-06-10T03:30:32;25.40;48.40
14142;DHT22;7151;52.246;4.820;2023-06-10T03:32:57;25.40;48.40
14142;DHT22;7151;52.246;4.820;2023-06-10T03:35:23;25.40;48.50
14142;DHT22;7151;52.246;4.820;2023-06-10T03:37:49;25.30;48.50
14142;DHT22;7151;52.246;4.820;2023-06-10T03:40:14;25.30;48.50
14142;DHT22;7151;52.246;4.820;2023-06-10T03:42:40;25.30;48.60
14142;DHT22;7151;52.246;4.820;2023-06-10T03:45:06;25.30;48.70
14142;DHT22;7151;52.246;4.820;2023-06-10T03:47:35;25.30;48.90
14142;DHT22;7151;52.246;4.820;2023-06-10T03:50:04;25.20;48.90
14142;DHT22;7151;52.246;4.820;2023-06-10T03:52:30;25.20;49.00
14142;DHT22;7151;52.246;4.820;2023-06-10T03:54:56;25.20;49.10
14142;DHT22;7151;52.246;4.820;2023-06-10T03:57:21;25.20;49.20
14142;DHT22;7151;52.246;4.820;2023-06-10T03:59:47;25.10;49.20
14142;DHT22;7151;52.246;4.820;2023-06-10T04:02:13;25.10;49.20
14142;DHT22;7151;52.246;4.820;2023-06-10T04:04:38;25.10;49.20
14142;DHT22;7151;52.246;4.820;2023-06-10T04:07:05;25.10;49.30
14142;DHT22;7151;52.246;4.820;2023-06-10T04:09:30;25.10;49.40
14142;DHT22;7151;52.246;4.820;2023-06-10T04:11:56;25.10;49.50
14142;DHT22;7151;52.246;4.820;2023-06-10T04:14:21;25.00;49.60
14142;DHT22;7151;52.246;4.820;2023-06-10T04:16:47;25.00;49.60
14142;DHT22;7151;52.246;4.820;2023-06-10T04:19:13;25.00;49.60
14142;DHT22;7151;52.246;4.820;2023-06-10T04:21:38;25.00;49.80
14142;DHT22;7151;52.246;4.820;2023-06-10T04:24:04;25.00;49.80
14142;DHT22;7151;52.246;4.820;2023-06-10T04:26:30;25.00;49.90
14142;DHT22;7151;52.246;4.820;2023-06-10T04:28:55;24.90;50.00
14142;DHT22;7151;52.246;4.820;2023-06-10T04:31:21;24.90;50.00
14142;DHT22;7151;52.246;4.820;2023-06-10T04:33:46;24.90;50.00
14142;DHT22;7151;52.246;4.820;2023-06-10T04:36:12;24.90;50.10
14142;DHT22;7151;52.246;4.820;2023-06-10T04:38:37;24.90;50.20
14142;DHT22;7151;52.246;4.820;2023-06-10T04:41:03;24.90;50.30
14142;DHT22;7151;52.246;4.820;2023-06-10T04:43:29;24.90;50.40
14142;DHT22;7151;52.246;4.820;2023-06-10T04:45:56;24.90;50.50
14142;DHT22;7151;52.246;4.820;2023-06-10T04:48:21;24.90;50.60
14142;DHT22;7151;52.246;4.820;2023-06-10T04:50:49;24.90;50.70
14142;DHT22;7151;52.246;4.820;2023-06-10T04:53:15;24.80;50.70
14142;DHT22;7151;52.246;4.820;2023-06-10T04:55:41;24.80;50.80
14142;DHT22;7151;52.246;4.820;2023-06-10T04:58:06;24.80;50.90
14142;DHT22;7151;52.246;4.820;2023-06-10T05:00:32;24.80;51.00
14142;DHT22;7151;52.246;4.820;2023-06-10T05:02:58;24.80;51.00
14142;DHT22;7151;52.246;4.820;2023-06-10T05:05:23;24.80;51.80
14142;DHT22;7151;52.246;4.820;2023-06-10T05:07:49;24.80;51.30
14142;DHT22;7151;52.246;4.820;2023-06-10T05:10:14;24.80;51.40
14142;DHT22;7151;52.246;4.820;2023-06-10T05:12:41;24.80;51.40
14142;DHT22;7151;52.246;4.820;2023-06-10T05:15:07;24.80;51.40
14142;DHT22;7151;52.246;4.820;2023-06-10T05:17:33;24.80;51.50
14142;DHT22;7151;52.246;4.820;2023-06-10T05:20:00;24.80;51.60
14142;DHT22;7151;52.246;4.820;2023-06-10T05:22:26;24.80;51.70
14142;DHT22;7151;52.246;4.820;2023-06-10T05:24:53;24.80;51.80
14142;DHT22;7151;52.246;4.820;2023-06-10T05:27:18;24.80;51.90
14142;DHT22;7151;52.246;4.820;2023-06-10T05:29:44;24.80;52.00
14142;DHT22;7151;52.246;4.820;2023-06-10T05:32:11;24.80;52.00
14142;DHT22;7151;52.246;4.820;2023-06-10T05:34:37;24.80;52.00
14142;DHT22;7151;52.246;4.820;2023-06-10T05:37:02;24.80;52.10
14142;DHT22;7151;52.246;4.820;2023-06-10T05:39:28;24.80;52.20
14142;DHT22;7151;52.246;4.820;2023-06-10T05:41:54;24.80;52.20
14142;DHT22;7151;52.246;4.820;2023-06-10T05:44:19;24.80;52.30
14142;DHT22;7151;52.246;4.820;2023-06-10T05:46:45;24.80;52.50
14142;DHT22;7151;52.246;4.820;2023-06-10T05:49:11;24.80;52.50
14142;DHT22;7151;52.246;4.820;2023-06-10T05:51:37;24.80;52.50
14142;DHT22;7151;52.246;4.820;2023-06-10T05:54:02;24.80;52.50
14142;DHT22;7151;52.246;4.820;2023-06-10T05:56:28;24.80;52.60
14142;DHT22;7151;52.246;4.820;2023-06-10T05:58:54;24.80;52.70
14142;DHT22;7151;52.246;4.820;2023-06-10T06:01:20;24.80;52.70
14142;DHT22;7151;52.246;4.820;2023-06-10T06:03:45;24.80;52.80
14142;DHT22;7151;52.246;4.820;2023-06-10T06:06:11;24.80;52.90
14142;DHT22;7151;52.246;4.820;2023-06-10T06:08:37;24.80;52.90
14142;DHT22;7151;52.246;4.820;2023-06-10T06:11:02;24.90;53.00
14142;DHT22;7151;52.246;4.820;2023-06-10T06:13:28;24.90;53.00
14142;DHT22;7151;52.246;4.820;2023-06-10T06:15:53;24.80;53.00
14142;DHT22;7151;52.246;4.820;2023-06-10T06:18:19;24.90;53.10
14142;DHT22;7151;52.246;4.820;2023-06-10T06:20:45;24.90;53.20
14142;DHT22;7151;52.246;4.820;2023-06-10T06:23:10;24.80;53.30
14142;DHT22;7151;52.246;4.820;2023-06-10T06:25:36;24.90;53.30
14142;DHT22;7151;52.246;4.820;2023-06-10T06:28:07;24.90;53.30
14142;DHT22;7151;52.246;4.820;2023-06-10T06:30:35;24.90;53.30
14142;DHT22;7151;52.246;4.820;2023-06-10T06:33:01;25.00;53.50
14142;DHT22;7151;52.246;4.820;2023-06-10T06:35:26;24.90;53.40
14142;DHT22;7151;52.246;4.820;2023-06-10T06:37:52;25.00;53.40
14142;DHT22;7151;52.246;4.820;2023-06-10T06:40:17;25.00;53.40
14142;DHT22;7151;52.246;4.820;2023-06-10T06:42:43;25.00;53.40
14142;DHT22;7151;52.246;4.820;2023-06-10T06:45:10;25.00;53.50
14142;DHT22;7151;52.246;4.820;2023-06-10T06:47:35;25.10;53.50
14142;DHT22;7151;52.246;4.820;2023-06-10T06:50:01;25.10;53.50
14142;DHT22;7151;52.246;4.820;2023-06-10T06:52:28;25.10;53.50
14142;DHT22;7151;52.246;4.820;2023-06-10T06:54:53;25.10;53.60
14142;DHT22;7151;52.246;4.820;2023-06-10T06:57:19;25.10;53.60
14142;DHT22;7151;52.246;4.820;2023-06-10T06:59:44;25.20;53.70
14142;DHT22;7151;52.246;4.820;2023-06-10T07:02:10;25.20;53.60
14142;DHT22;7151;52.246;4.820;2023-06-10T07:04:36;25.20;53.40
14142;DHT22;7151;52.246;4.820;2023-06-10T07:07:02;25.20;53.40
14142;DHT22;7151;52.246;4.820;2023-06-10T07:09:27;25.30;53.50
14142;DHT22;7151;52.246;4.820;2023-06-10T07:11:53;25.30;53.60
14142;DHT22;7151;52.246;4.820;2023-06-10T07:14:19;25.30;53.70
14142;DHT22;7151;52.246;4.820;2023-06-10T07:16:44;25.30;53.70
14142;DHT22;7151;52.246;4.820;2023-06-10T07:19:11;25.30;53.60
14142;DHT22;7151;52.246;4.820;2023-06-10T07:21:36;25.40;53.80
14142;DHT22;7151;52.246;4.820;2023-06-10T07:24:03;25.40;53.70
14142;DHT22;7151;52.246;4.820;2023-06-10T07:26:29;25.40;53.50
14142;DHT22;7151;52.246;4.820;2023-06-10T07:28:54;25.50;53.70
14142;DHT22;7151;52.246;4.820;2023-06-10T07:31:20;25.50;53.80
14142;DHT22;7151;52.246;4.820;2023-06-10T07:33:47;25.50;53.80
14142;DHT22;7151;52.246;4.820;2023-06-10T07:36:12;25.60;53.90
14142;DHT22;7151;52.246;4.820;2023-06-10T07:38:38;25.60;54.00
14142;DHT22;7151;52.246;4.820;2023-06-10T07:41:03;25.60;54.00
14142;DHT22;7151;52.246;4.820;2023-06-10T07:43:29;25.70;54.10
14142;DHT22;7151;52.246;4.820;2023-06-10T07:45:55;25.70;54.20
14142;DHT22;7151;52.246;4.820;2023-06-10T07:48:21;25.70;54.20
14142;DHT22;7151;52.246;4.820;2023-06-10T07:50:46;25.80;54.30
14142;DHT22;7151;52.246;4.820;2023-06-10T07:53:12;25.80;54.40
14142;DHT22;7151;52.246;4.820;2023-06-10T07:55:37;25.80;54.40
14142;DHT22;7151;52.246;4.820;2023-06-10T07:58:03;25.90;54.50
14142;DHT22;7151;52.246;4.820;2023-06-10T08:00:28;25.90;54.50
14142;DHT22;7151;52.246;4.820;2023-06-10T08:02:54;26.00;54.50
14142;DHT22;7151;52.246;4.820;2023-06-10T08:05:21;26.00;54.50
14142;DHT22;7151;52.246;4.820;2023-06-10T08:07:46;26.00;54.30
14142;DHT22;7151;52.246;4.820;2023-06-10T08:10:12;26.00;54.20
14142;DHT22;7151;52.246;4.820;2023-06-10T08:12:37;26.10;54.30
14142;DHT22;7151;52.246;4.820;2023-06-10T08:15:03;26.10;54.40
14142;DHT22;7151;52.246;4.820;2023-06-10T08:17:30;26.20;54.50
14142;DHT22;7151;52.246;4.820;2023-06-10T08:19:57;26.20;54.50
14142;DHT22;7151;52.246;4.820;2023-06-10T08:22:22;26.30;54.50
14142;DHT22;7151;52.246;4.820;2023-06-10T08:24:48;26.30;54.40
14142;DHT22;7151;52.246;4.820;2023-06-10T08:27:14;26.30;54.30
14142;DHT22;7151;52.246;4.820;2023-06-10T08:29:40;26.40;54.30
14142;DHT22;7151;52.246;4.820;2023-06-10T08:32:06;26.40;54.30
14142;DHT22;7151;52.246;4.820;2023-06-10T08:34:34;26.50;54.20
14142;DHT22;7151;52.246;4.820;2023-06-10T08:37:01;26.50;54.20
14142;DHT22;7151;52.246;4.820;2023-06-10T08:39:26;26.60;54.20
14142;DHT22;7151;52.246;4.820;2023-06-10T08:42:13;26.70;54.10
14142;DHT22;7151;52.246;4.820;2023-06-10T08:44:43;26.70;54.00
14142;DHT22;7151;52.246;4.820;2023-06-10T08:47:14;26.80;53.80
14142;DHT22;7151;52.246;4.820;2023-06-10T08:49:45;26.80;53.60
14142;DHT22;7151;52.246;4.820;2023-06-10T08:52:21;26.90;53.50
14142;DHT22;7151;52.246;4.820;2023-06-10T08:54:52;27.00;53.40
14142;DHT22;7151;52.246;4.820;2023-06-10T08:57:20;27.00;53.30
14142;DHT22;7151;52.246;4.820;2023-06-10T08:59:47;27.00;53.30
14142;DHT22;7151;52.246;4.820;2023-06-10T09:02:14;27.10;53.30
14142;DHT22;7151;52.246;4.820;2023-06-10T09:04:42;27.20;53.40
14142;DHT22;7151;52.246;4.820;2023-06-10T09:07:09;27.30;53.20
14142;DHT22;7151;52.246;4.820;2023-06-10T09:09:36;27.30;53.10
14142;DHT22;7151;52.246;4.820;2023-06-10T09:12:03;27.40;53.20
14142;DHT22;7151;52.246;4.820;2023-06-10T09:14:28;27.40;53.00
14142;DHT22;7151;52.246;4.820;2023-06-10T09:16:54;27.50;53.00
14142;DHT22;7151;52.246;4.820;2023-06-10T09:19:23;27.60;53.00
14142;DHT22;7151;52.246;4.820;2023-06-10T09:21:50;27.70;53.10
14142;DHT22;7151;52.246;4.820;2023-06-10T09:24:16;27.70;53.20
14142;DHT22;7151;52.246;4.820;2023-06-10T09:26:42;27.80;53.10
14142;DHT22;7151;52.246;4.820;2023-06-10T09:29:08;27.90;53.60
14142;DHT22;7151;52.246;4.820;2023-06-10T09:31:36;28.00;53.10
14142;DHT22;7151;52.246;4.820;2023-06-10T09:34:07;28.00;53.00
14142;DHT22;7151;52.246;4.820;2023-06-10T09:36:34;28.10;52.90
14142;DHT22;7151;52.246;4.820;2023-06-10T09:39:00;28.10;52.70
14142;DHT22;7151;52.246;4.820;2023-06-10T09:41:45;28.20;52.70
14142;DHT22;7151;52.246;4.820;2023-06-10T09:44:18;28.20;52.60
14142;DHT22;7151;52.246;4.820;2023-06-10T09:46:49;28.20;52.80
14142;DHT22;7151;52.246;4.820;2023-06-10T09:49:16;28.30;53.10
14142;DHT22;7151;52.246;4.820;2023-06-10T09:51:53;28.40;53.60
14142;DHT22;7151;52.246;4.820;2023-06-10T09:54:20;28.50;53.70
14142;DHT22;7151;52.246;4.820;2023-06-10T09:56:50;28.70;53.90
14142;DHT22;7151;52.246;4.820;2023-06-10T09:59:22;28.70;54.00
14142;DHT22;7151;52.246;4.820;2023-06-10T10:01:56;28.90;53.20
14142;DHT22;7151;52.246;4.820;2023-06-10T10:04:26;29.00;53.10
14142;DHT22;7151;52.246;4.820;2023-06-10T10:06:52;29.10;53.60
14142;DHT22;7151;52.246;4.820;2023-06-10T10:09:18;29.20;53.40
14142;DHT22;7151;52.246;4.820;2023-06-10T10:11:44;29.30;53.60
14142;DHT22;7151;52.246;4.820;2023-06-10T10:14:11;29.40;54.60
14142;DHT22;7151;52.246;4.820;2023-06-10T10:16:41;29.50;54.20
14142;DHT22;7151;52.246;4.820;2023-06-10T10:19:28;29.60;54.90
14142;DHT22;7151;52.246;4.820;2023-06-10T10:22:08;29.70;54.00
14142;DHT22;7151;52.246;4.820;2023-06-10T10:24:50;29.90;54.00
14142;DHT22;7151;52.246;4.820;2023-06-10T10:27:44;29.90;53.50
14142;DHT22;7151;52.246;4.820;2023-06-10T10:30:11;30.00;54.00
14142;DHT22;7151;52.246;4.820;2023-06-10T10:32:46;30.10;53.80
14142;DHT22;7151;52.246;4.820;2023-06-10T10:35:23;30.20;53.80
14142;DHT22;7151;52.246;4.820;2023-06-10T10:37:54;30.30;53.30
14142;DHT22;7151;52.246;4.820;2023-06-10T10:40:23;30.30;53.10
14142;DHT22;7151;52.246;4.820;2023-06-10T10:42:50;30.40;53.30
14142;DHT22;7151;52.246;4.820;2023-06-10T10:45:17;30.50;53.60
14142;DHT22;7151;52.246;4.820;2023-06-10T10:47:45;30.60;53.90
14142;DHT22;7151;52.246;4.820;2023-06-10T10:50:19;30.60;53.10
14142;DHT22;7151;52.246;4.820;2023-06-10T10:53:01;30.70;52.50
14142;DHT22;7151;52.246;4.820;2023-06-10T10:55:28;30.70;52.40
14142;DHT22;7151;52.246;4.820;2023-06-10T10:58:03;30.80;52.70
14142;DHT22;7151;52.246;4.820;2023-06-10T11:00:32;30.90;53.30
14142;DHT22;7151;52.246;4.820;2023-06-10T11:03:09;30.90;53.50
14142;DHT22;7151;52.246;4.820;2023-06-10T11:05:45;31.00;52.70
14142;DHT22;7151;52.246;4.820;2023-06-10T11:10:58;31.20;52.30
14142;DHT22;7151;52.246;4.820;2023-06-10T11:13:25;31.30;52.10
14142;DHT22;7151;52.246;4.820;2023-06-10T11:15:52;31.30;51.60
14142;DHT22;7151;52.246;4.820;2023-06-10T11:18:23;31.40;50.90
14142;DHT22;7151;52.246;4.820;2023-06-10T11:21:02;31.50;50.90
14142;DHT22;7151;52.246;4.820;2023-06-10T11:26:19;31.60;50.60
14142;DHT22;7151;52.246;4.820;2023-06-10T11:31:22;31.80;50.40
14142;DHT22;7151;52.246;4.820;2023-06-10T11:33:55;31.80;49.40
14142;DHT22;7151;52.246;4.820;2023-06-10T11:36:25;31.90;49.50
14142;DHT22;7151;52.246;4.820;2023-06-10T11:38:56;32.00;49.40
14142;DHT22;7151;52.246;4.820;2023-06-10T11:41:22;32.00;49.20
14142;DHT22;7151;52.246;4.820;2023-06-10T11:43:48;32.10;49.30
14142;DHT22;7151;52.246;4.820;2023-06-10T11:46:14;32.20;49.50
14142;DHT22;7151;52.246;4.820;2023-06-10T11:48:49;32.30;49.20
14142;DHT22;7151;52.246;4.820;2023-06-10T11:51:15;32.40;49.10
14142;DHT22;7151;52.246;4.820;2023-06-10T11:53:40;32.40;48.90
14142;DHT22;7151;52.246;4.820;2023-06-10T11:56:08;32.50;48.50
14142;DHT22;7151;52.246;4.820;2023-06-10T11:58:34;32.50;48.30
14142;DHT22;7151;52.246;4.820;2023-06-10T12:01:00;32.60;48.30
14142;DHT22;7151;52.246;4.820;2023-06-10T12:03:27;32.70;48.10
14142;DHT22;7151;52.246;4.820;2023-06-10T12:06:06;32.80;47.90
14142;DHT22;7151;52.246;4.820;2023-06-10T12:08:33;32.80;47.40
14142;DHT22;7151;52.246;4.820;2023-06-10T12:10:59;32.90;47.40
14142;DHT22;7151;52.246;4.820;2023-06-10T12:13:27;33.00;47.10
14142;DHT22;7151;52.246;4.820;2023-06-10T12:15:53;33.10;46.90
14142;DHT22;7151;52.246;4.820;2023-06-10T12:18:25;33.10;46.60
14142;DHT22;7151;52.246;4.820;2023-06-10T12:20:51;33.20;46.10
14142;DHT22;7151;52.246;4.820;2023-06-10T12:23:17;33.20;46.60
14142;DHT22;7151;52.246;4.820;2023-06-10T12:25:53;33.30;45.60
14142;DHT22;7151;52.246;4.820;2023-06-10T12:28:23;33.40;45.90
14142;DHT22;7151;52.246;4.820;2023-06-10T12:30:49;33.50;45.60
14142;DHT22;7151;52.246;4.820;2023-06-10T12:33:22;33.50;45.30
14142;DHT22;7151;52.246;4.820;2023-06-10T12:35:52;33.60;45.00
14142;DHT22;7151;52.246;4.820;2023-06-10T12:38:22;33.70;44.60
14142;DHT22;7151;52.246;4.820;2023-06-10T12:40:49;33.70;44.70
14142;DHT22;7151;52.246;4.820;2023-06-10T12:43:24;33.80;45.00
14142;DHT22;7151;52.246;4.820;2023-06-10T12:45:51;33.80;44.10
14142;DHT22;7151;52.246;4.820;2023-06-10T12:48:17;33.90;44.30
14142;DHT22;7151;52.246;4.820;2023-06-10T12:50:44;33.90;44.20
14142;DHT22;7151;52.246;4.820;2023-06-10T12:53:11;34.00;44.00
14142;DHT22;7151;52.246;4.820;2023-06-10T12:55:37;34.00;44.10
14142;DHT22;7151;52.246;4.820;2023-06-10T12:58:02;34.10;44.10
14142;DHT22;7151;52.246;4.820;2023-06-10T13:00:28;34.20;43.90
14142;DHT22;7151;52.246;4.820;2023-06-10T13:03:01;34.30;44.00
14142;DHT22;7151;52.246;4.820;2023-06-10T13:05:27;34.30;43.90
14142;DHT22;7151;52.246;4.820;2023-06-10T13:07:54;34.40;43.90
14142;DHT22;7151;52.246;4.820;2023-06-10T13:10:21;34.50;44.00
14142;DHT22;7151;52.246;4.820;2023-06-10T13:12:46;34.60;43.60
14142;DHT22;7151;52.246;4.820;2023-06-10T13:15:13;34.60;43.40
14142;DHT22;7151;52.246;4.820;2023-06-10T13:17:38;34.70;43.10
14142;DHT22;7151;52.246;4.820;2023-06-10T13:20:06;34.80;42.70
14142;DHT22;7151;52.246;4.820;2023-06-10T13:22:32;34.80;42.10
14142;DHT22;7151;52.246;4.820;2023-06-10T13:25:02;34.80;42.30
14142;DHT22;7151;52.246;4.820;2023-06-10T13:27:29;34.90;42.60
14142;DHT22;7151;52.246;4.820;2023-06-10T13:29:54;35.00;42.20
14142;DHT22;7151;52.246;4.820;2023-06-10T13:32:20;35.00;41.80
14142;DHT22;7151;52.246;4.820;2023-06-10T13:34:46;35.10;42.00
14142;DHT22;7151;52.246;4.820;2023-06-10T13:37:12;35.20;41.90
14142;DHT22;7151;52.246;4.820;2023-06-10T13:39:41;35.20;41.80
14142;DHT22;7151;52.246;4.820;2023-06-10T13:42:07;35.20;41.50
14142;DHT22;7151;52.246;4.820;2023-06-10T13:44:33;35.30;41.40
14142;DHT22;7151;52.246;4.820;2023-06-10T13:47:04;35.40;41.20
14142;DHT22;7151;52.246;4.820;2023-06-10T13:49:30;35.40;41.00
14142;DHT22;7151;52.246;4.820;2023-06-10T13:51:56;35.50;40.60
14142;DHT22;7151;52.246;4.820;2023-06-10T13:54:22;35.50;40.60
14142;DHT22;7151;52.246;4.820;2023-06-10T13:56:48;35.60;40.20
14142;DHT22;7151;52.246;4.820;2023-06-10T13:59:13;35.60;40.00
14142;DHT22;7151;52.246;4.820;2023-06-10T14:01:39;35.60;40.10
14142;DHT22;7151;52.246;4.820;2023-06-10T14:04:06;35.60;39.80
14142;DHT22;7151;52.246;4.820;2023-06-10T14:06:32;35.70;40.00
14142;DHT22;7151;52.246;4.820;2023-06-10T14:08:59;35.80;40.00
14142;DHT22;7151;52.246;4.820;2023-06-10T14:11:24;35.80;39.70
14142;DHT22;7151;52.246;4.820;2023-06-10T14:13:50;35.80;39.50
14142;DHT22;7151;52.246;4.820;2023-06-10T14:16:15;36.00;39.60
14142;DHT22;7151;52.246;4.820;2023-06-10T14:18:41;36.00;39.10
14142;DHT22;7151;52.246;4.820;2023-06-10T14:21:06;36.10;39.00
14142;DHT22;7151;52.246;4.820;2023-06-10T14:23:32;36.10;38.40
14142;DHT22;7151;52.246;4.820;2023-06-10T14:25:57;36.20;38.20
14142;DHT22;7151;52.246;4.820;2023-06-10T14:28:24;36.20;38.20
14142;DHT22;7151;52.246;4.820;2023-06-10T14:30:51;36.20;38.00
14142;DHT22;7151;52.246;4.820;2023-06-10T14:33:17;36.20;37.80
14142;DHT22;7151;52.246;4.820;2023-06-10T14:35:43;36.20;37.80
14142;DHT22;7151;52.246;4.820;2023-06-10T14:38:09;36.30;37.90
14142;DHT22;7151;52.246;4.820;2023-06-10T14:40:35;36.40;38.10
14142;DHT22;7151;52.246;4.820;2023-06-10T14:43:00;36.40;37.90
14142;DHT22;7151;52.246;4.820;2023-06-10T14:45:29;36.50;37.40
14142;DHT22;7151;52.246;4.820;2023-06-10T14:47:54;36.50;37.00
14142;DHT22;7151;52.246;4.820;2023-06-10T14:50:20;36.50;36.90
14142;DHT22;7151;52.246;4.820;2023-06-10T14:52:46;36.50;36.90
14142;DHT22;7151;52.246;4.820;2023-06-10T14:55:11;36.50;36.70
14142;DHT22;7151;52.246;4.820;2023-06-10T14:57:37;36.60;36.70
14142;DHT22;7151;52.246;4.820;2023-06-10T15:00:03;36.60;36.50
14142;DHT22;7151;52.246;4.820;2023-06-10T15:02:29;36.60;36.10
14142;DHT22;7151;52.246;4.820;2023-06-10T15:04:54;36.70;36.30
14142;DHT22;7151;52.246;4.820;2023-06-10T15:07:20;36.70;36.10
14142;DHT22;7151;52.246;4.820;2023-06-10T15:09:45;36.70;36.20
14142;DHT22;7151;52.246;4.820;2023-06-10T15:12:11;36.80;36.20
14142;DHT22;7151;52.246;4.820;2023-06-10T15:14:37;36.90;36.10
14142;DHT22;7151;52.246;4.820;2023-06-10T15:17:03;36.90;35.60
14142;DHT22;7151;52.246;4.820;2023-06-10T15:19:29;36.90;35.60
14142;DHT22;7151;52.246;4.820;2023-06-10T15:21:54;37.00;35.60
14142;DHT22;7151;52.246;4.820;2023-06-10T15:24:20;37.00;35.20
14142;DHT22;7151;52.246;4.820;2023-06-10T15:26:45;37.00;35.20
14142;DHT22;7151;52.246;4.820;2023-06-10T15:29:11;37.10;35.20
14142;DHT22;7151;52.246;4.820;2023-06-10T15:31:37;37.10;34.80
14142;DHT22;7151;52.246;4.820;2023-06-10T15:34:03;37.20;34.70
14142;DHT22;7151;52.246;4.820;2023-06-10T15:36:29;37.20;34.50
14142;DHT22;7151;52.246;4.820;2023-06-10T15:39:01;37.20;34.10
14142;DHT22;7151;52.246;4.820;2023-06-10T15:41:27;37.20;33.60
14142;DHT22;7151;52.246;4.820;2023-06-10T15:43:53;37.20;33.50
14142;DHT22;7151;52.246;4.820;2023-06-10T15:46:19;37.20;33.40
14142;DHT22;7151;52.246;4.820;2023-06-10T15:48:44;37.20;33.50
14142;DHT22;7151;52.246;4.820;2023-06-10T15:51:10;37.10;33.30
14142;DHT22;7151;52.246;4.820;2023-06-10T15:53:36;37.10;33.20
14142;DHT22;7151;52.246;4.820;2023-06-10T15:56:02;37.10;33.20